createdAt,value
2019-03-19T00:00:27.315Z,1021.40
2019-03-19T00:01:27.144Z,1021.38
2019-03-19T00:02:27.116Z,1021.38
2019-03-19T00:03:27.074Z,1021.41
2019-03-19T00:04:27.149Z,1021.39
2019-03-19T00:05:27.015Z,1021.39
2019-03-19T00:06:27.154Z,1021.36
2019-03-19T00:07:26.957Z,1021.38
2019-03-19T00:08:26.927Z,1021.37
2019-03-19T00:09:27.076Z,1021.41
2019-03-19T00:10:26.864Z,1021.41
2019-03-19T00:11:26.986Z,1021.38
2019-03-19T00:12:26.805Z,1021.39
2019-03-19T00:13:26.776Z,1021.44
2019-03-19T00:14:26.735Z,1021.44
2019-03-19T00:15:27.849Z,1021.41
2019-03-19T00:16:26.687Z,1021.41
2019-03-19T00:17:26.825Z,1021.47
2019-03-19T00:18:26.617Z,1021.46
2019-03-19T00:19:26.584Z,1021.41
2019-03-19T00:20:26.744Z,1021.41
2019-03-19T00:21:26.518Z,1021.41
2019-03-19T00:22:26.668Z,1021.44
2019-03-19T00:23:26.453Z,1021.40
2019-03-19T00:24:26.425Z,1021.36
2019-03-19T00:25:30.252Z,1021.37
2019-03-19T00:26:26.477Z,1021.36
2019-03-19T00:27:26.337Z,1021.33
2019-03-19T00:28:26.505Z,1021.32
2019-03-19T00:29:26.267Z,1021.35
2019-03-19T00:30:26.233Z,1021.38
2019-03-19T00:31:26.205Z,1021.38
2019-03-19T00:32:26.321Z,1021.37
2019-03-19T00:33:26.187Z,1021.44
2019-03-19T00:34:26.230Z,1021.39
2019-03-19T00:35:26.074Z,1021.39
2019-03-19T00:36:26.260Z,1021.37
2019-03-19T00:37:26.016Z,1021.34
2019-03-19T00:38:26.154Z,1021.34
2019-03-19T00:39:25.954Z,1021.35
2019-03-19T00:40:26.064Z,1021.33
2019-03-19T00:41:26.074Z,1021.38
2019-03-19T00:42:25.862Z,1021.40
2019-03-19T00:43:25.982Z,1021.38
2019-03-19T00:44:25.792Z,1021.43
2019-03-19T00:45:25.904Z,1021.43
2019-03-19T00:46:25.732Z,1021.43
2019-03-19T00:47:25.704Z,1021.41
2019-03-19T00:48:25.818Z,1021.45
2019-03-19T00:49:25.643Z,1021.45
2019-03-19T00:50:25.824Z,1021.47
2019-03-19T00:51:25.584Z,1021.54
2019-03-19T00:52:25.543Z,1021.61
2019-03-19T00:53:25.514Z,1021.63
2019-03-19T00:54:25.554Z,1021.61
2019-03-19T00:55:25.453Z,1021.62
2019-03-19T00:56:25.464Z,1021.60
2019-03-19T00:57:25.395Z,1021.61
2019-03-19T00:58:25.365Z,1021.56
2019-03-19T00:59:26.409Z,1021.52
2019-03-19T01:00:25.294Z,1021.49
2019-03-19T01:01:25.293Z,1021.49
2019-03-19T01:02:25.243Z,1021.56
2019-03-19T01:03:25.210Z,1021.55
2019-03-19T01:04:25.171Z,1021.53
2019-03-19T01:05:25.213Z,1021.59
2019-03-19T01:06:25.116Z,1021.59
2019-03-19T01:07:25.135Z,1021.60
2019-03-19T01:08:25.045Z,1021.64
2019-03-19T01:09:25.011Z,1021.62
2019-03-19T01:10:25.043Z,1021.64
2019-03-19T01:11:24.943Z,1021.63
2019-03-19T01:12:24.968Z,1021.66
2019-03-19T01:13:24.886Z,1021.65
2019-03-19T01:14:24.977Z,1021.66
2019-03-19T01:15:24.825Z,1021.65
2019-03-19T01:16:24.883Z,1021.71
2019-03-19T01:17:24.765Z,1021.73
2019-03-19T01:18:24.808Z,1021.75
2019-03-19T01:19:24.693Z,1021.77
2019-03-19T01:20:24.662Z,1021.81
2019-03-19T01:21:24.646Z,1021.80
2019-03-19T01:22:24.723Z,1021.77
2019-03-19T01:23:24.573Z,1021.80
2019-03-19T01:24:24.634Z,1021.78
2019-03-19T01:25:24.513Z,1021.81
2019-03-19T01:26:24.488Z,1021.76
2019-03-19T01:27:24.554Z,1021.81
2019-03-19T01:28:24.428Z,1021.85
2019-03-19T01:29:24.463Z,1021.78
2019-03-19T01:30:24.344Z,1021.83
2019-03-19T01:31:24.313Z,1021.81
2019-03-19T01:32:24.282Z,1021.84
2019-03-19T01:33:24.394Z,1021.88
2019-03-19T01:34:24.223Z,1021.88
2019-03-19T01:35:24.304Z,1021.88
2019-03-19T01:36:24.163Z,1021.91
2019-03-19T01:37:24.134Z,1021.88
2019-03-19T01:38:24.223Z,1021.88
2019-03-19T01:39:24.063Z,1021.80
2019-03-19T01:40:24.146Z,1021.83
2019-03-19T01:41:24.007Z,1021.81
2019-03-19T01:42:23.964Z,1021.81
2019-03-19T01:43:23.954Z,1021.78
2019-03-19T01:44:24.061Z,1021.79
2019-03-19T01:45:23.873Z,1021.83
2019-03-19T01:46:23.971Z,1021.85
2019-03-19T01:47:23.816Z,1021.87
2019-03-19T01:48:23.783Z,1021.85
2019-03-19T01:49:24.814Z,1021.85
2019-03-19T01:50:23.713Z,1021.80
2019-03-19T01:51:23.802Z,1021.80
2019-03-19T01:52:23.654Z,1021.81
2019-03-19T01:53:23.630Z,1021.82
2019-03-19T01:54:23.594Z,1021.84
2019-03-19T01:55:25.508Z,1021.88
2019-03-19T01:56:23.532Z,1021.91
2019-03-19T01:57:23.642Z,1021.88
2019-03-19T01:58:23.466Z,1021.93
2019-03-19T01:59:23.432Z,1021.94
2019-03-19T02:00:23.395Z,1021.86
2019-03-19T02:01:23.466Z,1021.96
2019-03-19T02:02:23.332Z,1021.95
2019-03-19T02:03:24.407Z,1021.93
2019-03-19T02:04:23.273Z,1021.93
2019-03-19T02:05:23.410Z,1021.95
2019-03-19T02:06:23.211Z,1021.97
2019-03-19T02:07:23.304Z,1021.95
2019-03-19T02:08:23.154Z,1022.02
2019-03-19T02:09:23.215Z,1022.03
2019-03-19T02:10:23.222Z,1022.01
2019-03-19T02:11:23.120Z,1022.03
2019-03-19T02:12:23.139Z,1022.05
2019-03-19T02:13:22.983Z,1022.08
2019-03-19T02:14:23.044Z,1022.08
2019-03-19T02:15:22.924Z,1022.05
2019-03-19T02:16:22.893Z,1022.02
2019-03-19T02:17:22.966Z,1022.01
2019-03-19T02:18:22.837Z,1022.01
2019-03-19T02:19:22.973Z,1021.96
2019-03-19T02:20:22.774Z,1021.91
2019-03-19T02:21:22.734Z,1021.93
2019-03-19T02:22:22.707Z,1021.90
2019-03-19T02:23:22.802Z,1021.93
2019-03-19T02:24:22.634Z,1021.97
2019-03-19T02:25:22.714Z,1021.99
2019-03-19T02:26:22.573Z,1022.02
2019-03-19T02:27:29.901Z,1021.97
2019-03-19T02:29:26.643Z,1022.08
2019-03-19T02:30:26.535Z,1022.13
2019-03-19T02:32:30.494Z,1022.16
2019-03-19T02:33:30.441Z,1022.20
2019-03-19T02:35:34.471Z,1022.15
2019-03-19T02:36:34.352Z,1022.10
2019-03-19T02:38:38.378Z,1022.08
2019-03-19T02:39:38.265Z,1022.09
2019-03-19T02:41:42.283Z,1022.04
2019-03-19T02:42:42.178Z,1022.05
2019-03-19T02:44:46.194Z,1022.11
2019-03-19T02:45:46.088Z,1022.18
2019-03-19T02:47:50.091Z,1022.20
2019-03-19T02:48:49.992Z,1022.22
2019-03-19T02:50:54.004Z,1022.24
2019-03-19T02:51:53.905Z,1022.26
2019-03-19T02:53:57.913Z,1022.27
2019-03-19T02:54:57.893Z,1022.25
2019-03-19T02:57:01.822Z,1022.27
2019-03-19T02:58:01.723Z,1022.29
2019-03-19T03:00:05.749Z,1022.33
2019-03-19T03:01:05.633Z,1022.33
2019-03-19T03:03:09.641Z,1022.34
2019-03-19T03:04:09.547Z,1022.44
2019-03-19T03:06:02.443Z,1022.50
2019-03-19T03:07:02.413Z,1022.56
2019-03-19T03:09:06.404Z,1022.56
2019-03-19T03:10:06.303Z,1022.58
2019-03-19T03:12:10.355Z,1022.62
2019-03-19T03:13:10.222Z,1022.55
2019-03-19T03:15:14.262Z,1022.48
2019-03-19T03:16:14.124Z,1022.43
2019-03-19T03:18:18.145Z,1022.30
2019-03-19T03:19:18.039Z,1022.31
2019-03-19T03:21:22.059Z,1022.32
2019-03-19T03:22:21.941Z,1022.33
2019-03-19T03:24:25.955Z,1022.41
2019-03-19T03:25:25.873Z,1022.41
2019-03-19T03:27:29.888Z,1022.46
2019-03-19T03:28:29.832Z,1022.41
2019-03-19T03:30:33.806Z,1022.40
2019-03-19T03:31:33.679Z,1022.42
2019-03-19T03:33:37.685Z,1022.46
2019-03-19T03:34:37.583Z,1022.47
2019-03-19T03:36:30.531Z,1022.53
2019-03-19T03:37:30.432Z,1022.54
2019-03-19T03:39:34.442Z,1022.60
2019-03-19T03:40:34.343Z,1022.58
2019-03-19T03:42:38.360Z,1022.63
2019-03-19T03:43:38.252Z,1022.63
2019-03-19T03:45:42.272Z,1022.59
2019-03-19T03:46:42.173Z,1022.60
2019-03-19T03:48:46.172Z,1022.58
2019-03-19T03:49:46.096Z,1022.55
2019-03-19T03:51:50.082Z,1022.54
2019-03-19T03:52:49.984Z,1022.52
2019-03-19T03:54:54.024Z,1022.55
2019-03-19T03:55:53.892Z,1022.55
2019-03-19T03:57:57.910Z,1022.63
2019-03-19T03:59:00.921Z,1022.70
2019-03-19T04:01:01.819Z,1022.68
2019-03-19T04:02:01.711Z,1022.72
2019-03-19T04:04:05.745Z,1022.68
2019-03-19T04:05:05.623Z,1022.66
2019-03-19T04:07:09.639Z,1022.65
2019-03-19T04:08:09.532Z,1022.65
2019-03-19T04:10:13.552Z,1022.60
2019-03-19T04:11:13.461Z,1022.60
2019-03-19T04:13:17.420Z,1022.58
2019-03-19T04:14:17.423Z,1022.67
2019-03-19T04:16:10.322Z,1022.69
2019-03-19T04:17:10.224Z,1022.73
2019-03-19T04:19:15.140Z,1022.75
2019-03-19T04:20:15.048Z,1022.72
2019-03-19T04:22:19.056Z,1022.81
2019-03-19T04:23:18.942Z,1022.81
2019-03-19T04:25:22.962Z,1022.79
2019-03-19T04:26:22.863Z,1022.80
2019-03-19T04:28:26.871Z,1022.85
2019-03-19T04:29:26.761Z,1022.91
2019-03-19T04:31:30.792Z,1022.92
2019-03-19T04:32:30.671Z,1022.91
2019-03-19T04:34:34.683Z,1022.90
2019-03-19T04:35:34.580Z,1022.90
2019-03-19T04:37:38.601Z,1022.98
2019-03-19T04:38:38.504Z,1022.94
2019-03-19T04:40:42.526Z,1023.00
2019-03-19T04:41:42.404Z,1023.03
2019-03-19T04:43:46.455Z,1022.94
2019-03-19T04:44:46.314Z,1022.91
2019-03-19T04:46:39.199Z,1022.94
2019-03-19T04:47:39.241Z,1022.95
2019-03-19T04:49:43.182Z,1022.92
2019-03-19T04:50:43.090Z,1022.93
2019-03-19T04:52:47.094Z,1023.01
2019-03-19T04:53:46.992Z,1023.02
2019-03-19T04:55:51.000Z,1023.08
2019-03-19T04:56:50.910Z,1023.11
2019-03-19T04:58:54.912Z,1023.12
2019-03-19T04:59:54.813Z,1023.16
2019-03-19T05:00:54.902Z,1023.14
2019-03-19T05:01:54.749Z,1023.12
2019-03-19T05:02:54.801Z,1023.16
2019-03-19T05:03:54.697Z,1023.16
2019-03-19T05:04:54.717Z,1023.16
2019-03-19T05:05:54.604Z,1023.18
2019-03-19T05:06:54.624Z,1023.17
2019-03-19T05:07:54.552Z,1023.22
2019-03-19T05:08:54.521Z,1023.22
2019-03-19T05:09:54.478Z,1023.24
2019-03-19T05:10:54.554Z,1023.22
2019-03-19T05:11:54.433Z,1023.21
2019-03-19T05:12:54.458Z,1023.27
2019-03-19T05:13:54.350Z,1023.25
2019-03-19T05:14:54.332Z,1023.28
2019-03-19T05:15:54.370Z,1023.30
2019-03-19T05:16:54.251Z,1023.29
2019-03-19T05:17:54.314Z,1023.25
2019-03-19T05:18:54.192Z,1023.20
2019-03-19T05:19:54.149Z,1023.21
2019-03-19T05:20:54.121Z,1023.19
2019-03-19T05:21:54.200Z,1023.19
2019-03-19T05:22:54.061Z,1023.14
2019-03-19T05:23:54.111Z,1023.18
2019-03-19T05:24:53.991Z,1023.22
2019-03-19T05:25:53.959Z,1023.26
2019-03-19T05:26:54.024Z,1023.28
2019-03-19T05:27:53.891Z,1023.26
2019-03-19T05:28:53.929Z,1023.32
2019-03-19T05:29:53.833Z,1023.30
2019-03-19T05:30:53.808Z,1023.35
2019-03-19T05:31:53.772Z,1023.28
2019-03-19T05:32:53.762Z,1023.32
2019-03-19T05:33:53.705Z,1023.30
2019-03-19T05:34:53.774Z,1023.33
2019-03-19T05:35:53.638Z,1023.30
2019-03-19T05:36:53.612Z,1023.33
2019-03-19T05:37:53.681Z,1023.37
2019-03-19T05:38:53.542Z,1023.40
2019-03-19T05:39:53.602Z,1023.39
2019-03-19T05:40:53.481Z,1023.44
2019-03-19T05:41:53.503Z,1023.46
2019-03-19T05:42:53.405Z,1023.48
2019-03-19T05:43:53.411Z,1023.49
2019-03-19T05:44:53.351Z,1023.49
2019-03-19T05:45:53.477Z,1023.46
2019-03-19T05:46:53.269Z,1023.49
2019-03-19T05:47:53.256Z,1023.47
2019-03-19T05:48:53.210Z,1023.51
2019-03-19T05:49:53.252Z,1023.47
2019-03-19T05:50:53.140Z,1023.47
2019-03-19T05:51:53.174Z,1023.50
2019-03-19T05:52:53.082Z,1023.50
2019-03-19T05:53:53.066Z,1023.51
2019-03-19T05:54:53.071Z,1023.52
2019-03-19T05:55:52.979Z,1023.54
2019-03-19T05:56:52.983Z,1023.56
2019-03-19T05:57:52.919Z,1023.57
2019-03-19T05:58:52.912Z,1023.60
2019-03-19T05:59:52.855Z,1023.61
2019-03-19T06:00:52.907Z,1023.59
2019-03-19T06:01:52.790Z,1023.62
2019-03-19T06:02:52.832Z,1023.62
2019-03-19T06:03:52.723Z,1023.66
2019-03-19T06:04:52.713Z,1023.62
2019-03-19T06:05:52.732Z,1023.64
2019-03-19T06:06:52.621Z,1023.69
2019-03-19T06:07:52.642Z,1023.70
2019-03-19T06:08:52.572Z,1023.73
2019-03-19T06:09:52.532Z,1023.73
2019-03-19T06:10:52.491Z,1023.76
2019-03-19T06:11:52.562Z,1023.76
2019-03-19T06:12:52.429Z,1023.75
2019-03-19T06:13:52.482Z,1023.76
2019-03-19T06:14:52.394Z,1023.73
2019-03-19T06:15:52.333Z,1023.76
2019-03-19T06:16:52.392Z,1023.78
2019-03-19T06:17:52.277Z,1023.75
2019-03-19T06:18:52.305Z,1023.80
2019-03-19T06:19:52.209Z,1023.80
2019-03-19T06:20:52.211Z,1023.83
2019-03-19T06:21:52.153Z,1023.85
2019-03-19T06:22:52.119Z,1023.86
2019-03-19T06:23:52.074Z,1023.84
2019-03-19T06:24:52.141Z,1023.88
2019-03-19T06:25:52.011Z,1023.89
2019-03-19T06:26:51.974Z,1023.90
2019-03-19T06:27:59.968Z,1023.96
2019-03-19T06:28:51.951Z,1023.99
2019-03-19T06:29:51.875Z,1023.98
2019-03-19T06:30:51.863Z,1023.97
2019-03-19T06:31:51.822Z,1023.94
2019-03-19T06:32:51.882Z,1023.94
2019-03-19T06:33:51.743Z,1023.97
2019-03-19T06:34:51.790Z,1023.95
2019-03-19T06:35:51.682Z,1023.94
2019-03-19T06:36:51.705Z,1023.98
2019-03-19T06:37:51.701Z,1023.95
2019-03-19T06:38:51.583Z,1023.93
2019-03-19T06:39:51.617Z,1023.96
2019-03-19T06:40:51.522Z,1023.93
2019-03-19T06:41:51.531Z,1023.91
2019-03-19T06:42:51.453Z,1023.95
2019-03-19T06:43:51.432Z,1023.95
2019-03-19T06:44:51.461Z,1024.07
2019-03-19T06:45:51.360Z,1024.11
2019-03-19T06:46:51.353Z,1024.12
2019-03-19T06:47:51.305Z,1024.16
2019-03-19T06:48:51.263Z,1024.18
2019-03-19T06:49:51.230Z,1024.17
2019-03-19T06:50:51.285Z,1024.18
2019-03-19T06:51:51.165Z,1024.15
2019-03-19T06:52:51.183Z,1024.16
2019-03-19T06:53:51.113Z,1024.19
2019-03-19T06:54:51.074Z,1024.20
2019-03-19T06:55:51.041Z,1024.21
2019-03-19T06:56:51.113Z,1024.19
2019-03-19T06:57:50.974Z,1024.16
2019-03-19T06:58:51.023Z,1024.17
2019-03-19T06:59:50.903Z,1024.15
2019-03-19T07:00:50.933Z,1024.23
2019-03-19T07:01:50.840Z,1024.20
2019-03-19T07:02:50.841Z,1024.18
2019-03-19T07:03:50.782Z,1024.21
2019-03-19T07:04:50.858Z,1024.18
2019-03-19T07:05:50.714Z,1024.16
2019-03-19T07:06:50.863Z,1024.17
2019-03-19T07:07:50.641Z,1024.23
2019-03-19T07:08:50.772Z,1024.29
2019-03-19T07:09:50.582Z,1024.33
2019-03-19T07:10:50.692Z,1024.39
2019-03-19T07:11:50.523Z,1024.34
2019-03-19T07:12:50.708Z,1024.35
2019-03-19T07:13:50.456Z,1024.39
2019-03-19T07:14:50.531Z,1024.40
2019-03-19T07:15:50.392Z,1024.35
2019-03-19T07:16:50.369Z,1024.35
2019-03-19T07:17:50.323Z,1024.31
2019-03-19T07:18:50.330Z,1024.31
2019-03-19T07:19:50.273Z,1024.33
2019-03-19T07:20:50.361Z,1024.30
2019-03-19T07:21:50.214Z,1024.32
2019-03-19T07:22:50.181Z,1024.30
2019-03-19T07:23:50.270Z,1024.27
2019-03-19T07:24:50.103Z,1024.26
2019-03-19T07:25:50.205Z,1024.22
2019-03-19T07:26:50.057Z,1024.26
2019-03-19T07:27:50.013Z,1024.29
2019-03-19T07:28:49.973Z,1024.28
2019-03-19T07:29:50.003Z,1024.23
2019-03-19T07:30:49.911Z,1024.24
2019-03-19T07:31:50.015Z,1024.26
2019-03-19T07:32:49.856Z,1024.25
2019-03-19T07:33:49.829Z,1024.29
2019-03-19T07:34:49.832Z,1024.33
2019-03-19T07:35:49.760Z,1024.27
2019-03-19T07:36:49.851Z,1024.29
2019-03-19T07:37:49.696Z,1024.31
2019-03-19T07:38:49.660Z,1024.33
2019-03-19T07:39:49.632Z,1024.34
2019-03-19T07:40:49.682Z,1024.35
2019-03-19T07:41:49.562Z,1024.41
2019-03-19T07:42:49.585Z,1024.40
2019-03-19T07:43:49.503Z,1024.44
2019-03-19T07:44:49.471Z,1024.39
2019-03-19T07:45:49.464Z,1024.39
2019-03-19T07:46:49.513Z,1024.44
2019-03-19T07:47:49.373Z,1024.44
2019-03-19T07:48:49.421Z,1024.49
2019-03-19T07:49:49.311Z,1024.56
2019-03-19T07:50:49.340Z,1024.56
2019-03-19T07:51:49.244Z,1024.55
2019-03-19T07:52:49.344Z,1024.59
2019-03-19T07:53:49.180Z,1024.61
2019-03-19T07:54:49.261Z,1024.58
2019-03-19T07:55:49.161Z,1024.60
2019-03-19T07:56:49.078Z,1024.56
2019-03-19T07:57:49.171Z,1024.56
2019-03-19T07:58:49.038Z,1024.57
2019-03-19T07:59:49.092Z,1024.57
2019-03-19T08:00:48.970Z,1024.60
2019-03-19T08:01:49.006Z,1024.62
2019-03-19T08:02:48.914Z,1024.64
2019-03-19T08:03:49.010Z,1024.66
2019-03-19T08:04:48.852Z,1024.70
2019-03-19T08:05:48.936Z,1024.76
2019-03-19T08:06:48.940Z,1024.77
2019-03-19T08:07:48.741Z,1024.73
2019-03-19T08:08:48.853Z,1024.69
2019-03-19T08:09:48.685Z,1024.68
2019-03-19T08:10:48.770Z,1024.69
2019-03-19T08:11:48.635Z,1024.71
2019-03-19T08:12:48.581Z,1024.66
2019-03-19T08:13:48.670Z,1024.66
2019-03-19T08:14:48.521Z,1024.72
2019-03-19T08:15:48.582Z,1024.70
2019-03-19T08:16:48.465Z,1024.74
2019-03-19T08:17:48.437Z,1024.74
2019-03-19T08:18:48.400Z,1024.76
2019-03-19T08:19:48.514Z,1024.80
2019-03-19T08:20:48.341Z,1024.81
2019-03-19T08:21:48.422Z,1024.83
2019-03-19T08:22:48.271Z,1024.82
2019-03-19T08:23:48.240Z,1024.85
2019-03-19T08:24:48.340Z,1024.85
2019-03-19T08:25:48.185Z,1024.88
2019-03-19T08:26:49.165Z,1024.91
2019-03-19T08:27:55.450Z,1024.87
2019-03-19T08:29:52.181Z,1024.83
2019-03-19T08:30:52.081Z,1024.91
2019-03-19T08:32:56.201Z,1024.94
2019-03-19T08:33:56.102Z,1024.90
2019-03-19T08:35:49.053Z,1024.95
2019-03-19T08:36:48.940Z,1024.99
2019-03-19T08:38:52.962Z,1024.96
2019-03-19T08:39:52.852Z,1024.97
2019-03-19T08:41:56.883Z,1024.94
2019-03-19T08:42:58.326Z,1024.95
2019-03-19T08:45:00.781Z,1024.97
2019-03-19T08:46:00.682Z,1024.98
2019-03-19T08:48:04.693Z,1025.04
2019-03-19T08:49:04.593Z,1025.06
2019-03-19T08:51:08.549Z,1025.08
2019-03-19T08:52:08.504Z,1025.06
2019-03-19T08:54:12.528Z,1025.12
2019-03-19T08:55:12.461Z,1025.09
2019-03-19T08:57:16.373Z,1025.15
2019-03-19T08:58:16.400Z,1025.10
2019-03-19T09:00:20.353Z,1025.09
2019-03-19T09:01:20.264Z,1025.09
2019-03-19T09:03:24.273Z,1025.06
2019-03-19T09:04:24.161Z,1025.08
2019-03-19T09:06:17.121Z,1025.08
2019-03-19T09:07:17.016Z,1025.13
2019-03-19T09:09:21.034Z,1025.16
2019-03-19T09:10:20.943Z,1025.16
2019-03-19T09:12:24.941Z,1025.19
2019-03-19T09:13:24.855Z,1025.17
2019-03-19T09:15:28.791Z,1025.20
2019-03-19T09:16:28.821Z,1025.19
2019-03-19T09:18:21.926Z,1025.21
2019-03-19T09:19:21.802Z,1025.24
2019-03-19T09:21:25.831Z,1025.28
2019-03-19T09:22:29.534Z,1025.28
2019-03-19T09:24:30.714Z,1025.27
2019-03-19T09:25:30.562Z,1025.24
2019-03-19T09:27:34.572Z,1025.34
2019-03-19T09:28:34.489Z,1025.42
2019-03-19T09:30:38.426Z,1025.96
2019-03-19T09:31:38.482Z,1025.97
2019-03-19T09:33:42.403Z,1026.03
2019-03-19T09:34:42.296Z,1026.05
2019-03-19T09:36:35.256Z,1026.05
2019-03-19T09:37:35.164Z,1026.08
2019-03-19T09:39:39.164Z,1026.10
2019-03-19T09:40:39.063Z,1026.10
2019-03-19T09:42:43.073Z,1026.13
2019-03-19T09:43:42.975Z,1026.18
2019-03-19T09:45:46.983Z,1026.10
2019-03-19T09:46:46.893Z,1026.19
2019-03-19T09:48:50.900Z,1026.16
2019-03-19T09:49:50.801Z,1026.12
2019-03-19T09:51:54.911Z,1026.17
2019-03-19T09:52:54.883Z,1026.12
2019-03-19T09:54:59.034Z,1026.06
2019-03-19T09:55:58.895Z,1026.09
2019-03-19T09:58:02.897Z,1026.07
2019-03-19T09:59:02.843Z,1026.08
2019-03-19T10:01:06.852Z,1026.08
2019-03-19T10:02:06.766Z,1026.08
2019-03-19T10:04:10.875Z,1026.05
2019-03-19T10:05:10.775Z,1026.13
2019-03-19T10:07:14.795Z,1026.16
2019-03-19T10:08:14.682Z,1026.18
2019-03-19T10:10:18.701Z,1026.21
2019-03-19T10:11:18.603Z,1026.22
2019-03-19T10:13:22.713Z,1026.48
2019-03-19T10:14:22.672Z,1026.61
2019-03-19T10:16:15.562Z,1026.82
2019-03-19T10:17:15.483Z,1026.78
2019-03-19T10:19:19.572Z,1026.69
2019-03-19T10:20:19.481Z,1026.66
2019-03-19T10:22:24.415Z,1026.61
2019-03-19T10:23:24.319Z,1026.65
2019-03-19T10:25:28.424Z,1026.69
2019-03-19T10:26:28.332Z,1026.68
2019-03-19T10:28:33.262Z,1026.68
2019-03-19T10:29:38.225Z,1026.67
2019-03-19T10:31:37.275Z,1026.68
2019-03-19T10:32:37.175Z,1026.70
2019-03-19T10:34:41.234Z,1026.70
2019-03-19T10:35:41.259Z,1026.68
2019-03-19T10:37:45.204Z,1026.67
2019-03-19T10:38:45.112Z,1026.67
2019-03-19T10:40:50.033Z,1026.58
2019-03-19T10:41:49.942Z,1026.58
2019-03-19T10:43:54.051Z,1026.61
2019-03-19T10:44:53.968Z,1026.57
2019-03-19T10:46:58.003Z,1026.56
2019-03-19T10:47:57.971Z,1026.56
2019-03-19T10:50:02.926Z,1026.55
2019-03-19T10:51:02.817Z,1026.53
2019-03-19T10:53:07.732Z,1026.64
2019-03-19T10:54:07.652Z,1026.66
2019-03-19T10:56:00.701Z,1026.66
2019-03-19T10:57:00.601Z,1026.65
2019-03-19T10:59:05.523Z,1026.69
2019-03-19T11:00:05.432Z,1026.66
2019-03-19T11:02:10.356Z,1026.68
2019-03-19T11:03:10.336Z,1026.62
2019-03-19T11:05:15.190Z,1026.59
2019-03-19T11:06:15.104Z,1026.59
2019-03-19T11:08:19.204Z,1026.61
2019-03-19T11:09:19.114Z,1026.54
2019-03-19T11:11:23.222Z,1026.62
2019-03-19T11:12:23.133Z,1026.69
2019-03-19T11:14:28.000Z,1026.89
2019-03-19T11:15:28.021Z,1026.89
2019-03-19T11:17:32.075Z,1026.89
2019-03-19T11:18:31.987Z,1026.78
2019-03-19T11:20:36.081Z,1026.67
2019-03-19T11:21:36.002Z,1026.71
2019-03-19T11:23:40.105Z,1026.59
2019-03-19T11:24:40.011Z,1026.54
2019-03-19T11:26:33.016Z,1026.56
2019-03-19T11:27:33.023Z,1026.53
2019-03-19T11:29:37.897Z,1026.47
2019-03-19T11:30:37.862Z,1026.55
2019-03-19T11:32:41.913Z,1026.51
2019-03-19T11:33:41.815Z,1026.17
2019-03-19T11:35:45.871Z,1026.42
2019-03-19T11:36:45.848Z,1026.32
2019-03-19T11:38:49.935Z,1026.36
2019-03-19T11:39:49.846Z,1026.33
2019-03-19T11:41:53.956Z,1026.28
2019-03-19T11:42:53.864Z,1026.28
2019-03-19T11:44:58.792Z,1026.17
2019-03-19T11:45:58.692Z,1026.12
2019-03-19T11:48:02.805Z,1026.11
2019-03-19T11:49:02.711Z,1026.10
2019-03-19T11:51:07.635Z,1026.15
2019-03-19T11:52:07.600Z,1026.11
2019-03-19T11:54:11.653Z,1025.81
2019-03-19T11:55:11.553Z,1025.78
2019-03-19T11:57:16.423Z,1026.11
2019-03-19T11:58:16.392Z,1025.82
2019-03-19T12:00:21.323Z,1025.81
2019-03-19T12:01:21.222Z,1025.77
2019-03-19T12:03:25.262Z,1025.94
2019-03-19T12:04:25.326Z,1025.93
2019-03-19T12:06:18.292Z,1025.90
2019-03-19T12:07:18.197Z,1025.94
2019-03-19T12:09:22.296Z,1025.92
2019-03-19T12:10:22.205Z,1025.93
2019-03-19T12:12:27.134Z,1025.96
2019-03-19T12:13:27.044Z,1025.97
2019-03-19T12:15:31.151Z,1025.85
2019-03-19T12:16:31.065Z,1025.92
2019-03-19T12:18:35.162Z,1025.96
2019-03-19T12:19:35.084Z,1026.03
2019-03-19T12:21:39.170Z,1025.99
2019-03-19T12:22:39.092Z,1025.99
2019-03-19T12:24:43.180Z,1025.95
2019-03-19T12:25:43.102Z,1025.98
2019-03-19T12:27:48.031Z,1025.93
2019-03-19T12:28:47.942Z,1025.88
2019-03-19T12:30:52.052Z,1025.83
2019-03-19T12:31:51.953Z,1025.86
2019-03-19T12:33:56.053Z,1025.85
2019-03-19T12:34:55.972Z,1025.84
2019-03-19T12:37:00.076Z,1025.82
2019-03-19T12:37:59.981Z,1025.79
2019-03-19T12:40:04.091Z,1025.74
2019-03-19T12:41:03.999Z,1025.74
2019-03-19T12:43:08.100Z,1025.72
2019-03-19T12:44:08.017Z,1025.65
2019-03-19T12:46:01.063Z,1025.72
2019-03-19T12:47:00.963Z,1025.77
2019-03-19T12:49:05.084Z,1025.83
2019-03-19T12:50:04.983Z,1025.77
2019-03-19T12:52:09.091Z,1025.78
2019-03-19T12:53:09.075Z,1025.84
2019-03-19T12:55:13.112Z,1025.81
2019-03-19T12:56:13.013Z,1025.77
2019-03-19T12:58:17.069Z,1025.72
2019-03-19T12:59:20.502Z,1025.76
2019-03-19T13:01:21.259Z,1025.73
2019-03-19T13:02:21.041Z,1025.75
2019-03-19T13:04:25.140Z,1025.71
2019-03-19T13:05:25.052Z,1025.69
2019-03-19T13:07:29.979Z,1025.70
2019-03-19T13:08:29.884Z,1025.69
2019-03-19T13:10:34.815Z,1025.74
2019-03-19T13:11:34.721Z,1025.78
2019-03-19T13:13:40.973Z,1025.73
2019-03-19T13:14:39.608Z,1025.77
2019-03-19T13:16:32.510Z,1025.72
2019-03-19T13:17:32.410Z,1025.75
2019-03-19T13:19:36.521Z,1025.74
2019-03-19T13:20:36.420Z,1025.74
2019-03-19T13:22:40.474Z,1025.71
2019-03-19T13:23:40.439Z,1025.76
2019-03-19T13:25:44.396Z,1025.72
2019-03-19T13:26:44.351Z,1025.69
2019-03-19T13:27:44.423Z,1025.71
2019-03-19T13:28:44.315Z,1025.68
2019-03-19T13:29:44.334Z,1025.67
2019-03-19T13:30:45.511Z,1025.70
2019-03-19T13:31:44.252Z,1025.69
2019-03-19T13:32:44.247Z,1025.70
2019-03-19T13:33:44.191Z,1025.65
2019-03-19T13:34:44.274Z,1025.66
2019-03-19T13:35:44.151Z,1025.66
2019-03-19T13:36:44.130Z,1025.72
2019-03-19T13:37:44.114Z,1025.70
2019-03-19T13:38:44.191Z,1025.67
2019-03-19T13:39:44.061Z,1025.68
2019-03-19T13:40:44.103Z,1025.69
2019-03-19T13:41:44.021Z,1025.66
2019-03-19T13:42:43.991Z,1025.66
2019-03-19T13:43:44.032Z,1025.67
2019-03-19T13:44:43.952Z,1025.68
2019-03-19T13:45:44.044Z,1025.70
2019-03-19T13:46:43.901Z,1025.72
2019-03-19T13:47:43.881Z,1025.75
2019-03-19T13:48:43.872Z,1025.77
2019-03-19T13:49:43.860Z,1025.71
2019-03-19T13:50:43.831Z,1025.73
2019-03-19T13:51:43.881Z,1025.72
2019-03-19T13:52:43.772Z,1025.73
2019-03-19T13:53:43.744Z,1025.71
2019-03-19T13:54:43.720Z,1025.74
2019-03-19T13:55:43.800Z,1025.72
2019-03-19T13:56:43.732Z,1025.79
2019-03-19T13:57:43.721Z,1025.78
2019-03-19T13:58:43.669Z,1025.80
2019-03-19T13:59:43.621Z,1025.79
2019-03-19T14:00:43.737Z,1025.78
2019-03-19T14:01:43.559Z,1025.79
2019-03-19T14:02:43.656Z,1025.76
2019-03-19T14:03:43.520Z,1025.73
2019-03-19T14:04:43.537Z,1025.74
2019-03-19T14:05:43.472Z,1025.72
2019-03-19T14:06:43.570Z,1025.76
2019-03-19T14:07:43.420Z,1025.79
2019-03-19T14:08:43.502Z,1025.80
2019-03-19T14:09:43.416Z,1025.81
2019-03-19T14:10:43.363Z,1025.78
2019-03-19T14:11:43.331Z,1025.82
2019-03-19T14:12:43.415Z,1025.73
2019-03-19T14:13:43.278Z,1025.71
2019-03-19T14:14:43.318Z,1025.67
2019-03-19T14:15:43.249Z,1025.67
2019-03-19T14:16:43.221Z,1025.66
2019-03-19T14:17:43.281Z,1025.66
2019-03-19T14:18:43.170Z,1025.70
2019-03-19T14:19:43.250Z,1025.66
2019-03-19T14:20:43.130Z,1025.64
2019-03-19T14:21:43.104Z,1025.68
2019-03-19T14:22:45.182Z,1025.67
2019-03-19T14:23:43.086Z,1025.69
2019-03-19T14:24:43.030Z,1025.67
2019-03-19T14:25:43.091Z,1025.64
2019-03-19T14:26:42.991Z,1025.62
2019-03-19T14:27:42.963Z,1025.60
2019-03-19T14:28:43.013Z,1025.59
2019-03-19T14:29:42.912Z,1025.57
2019-03-19T14:30:42.941Z,1025.58
2019-03-19T14:31:42.874Z,1025.58
2019-03-19T14:32:42.930Z,1025.60
2019-03-19T14:33:42.819Z,1025.58
2019-03-19T14:34:42.852Z,1025.56
2019-03-19T14:35:42.780Z,1025.59
2019-03-19T14:36:42.860Z,1025.61
2019-03-19T14:37:42.729Z,1025.59
2019-03-19T14:38:47.136Z,1025.64
2019-03-19T14:39:42.782Z,1025.62
2019-03-19T14:40:42.660Z,1025.60